Aek Godang Airport


Codes: WIME/AEG
Name: Aek Godang Airport
City: Padang Sidempuan-Sumatra Island
Country: Indonesia
Elevation: 922 ft.
Wikipedia:

Photos at Aek Godang Airport


   Photos courtesy of SpottingLog. You can add your own sightings and photos by signing up for a free trial today.



No photos found.

Weather at Aek Godang Airport


Time (UTC)DescriptionTempratureWindCloud coverageVisibilityPressureHumidity
16-Jun-2024 12:00Light Rain23°C4 mph, W98%10000m1011hPa98%
16-Jun-2024 15:00Light Rain23°C4 mph, W96%10000m1012hPa99%
16-Jun-2024 18:00Light Rain22°C4 mph, N95%0m1012hPa99%
16-Jun-2024 21:00Overcast Clouds22°C4 mph, W98%2609m1011hPa99%
17-Jun-2024 00:00Overcast Clouds22°C4 mph, W98%10000m1012hPa98%
17-Jun-2024 03:00Moderate Rain22°C4 mph, W99%1820m1014hPa96%
17-Jun-2024 06:00Moderate Rain22°C2 mph, W100%10000m1013hPa98%
17-Jun-2024 09:00Overcast Clouds22°C2 mph, W100%10000m1011hPa100%
17-Jun-2024 12:00Overcast Clouds22°C2 mph, W100%10000m1012hPa93%
17-Jun-2024 15:00Overcast Clouds22°C2 mph, W100%10000m1014hPa85%
17-Jun-2024 18:00Overcast Clouds22°C2 mph, NW100%10000m1012hPa80%
17-Jun-2024 21:00Overcast Clouds21°C2 mph, NW98%10000m1011hPa80%
18-Jun-2024 00:00Overcast Clouds22°C2 mph, NW99%10000m1012hPa80%
18-Jun-2024 03:00Overcast Clouds28°C2 mph, SW92%10000m1012hPa62%
18-Jun-2024 06:00Overcast Clouds31°C4 mph, SW93%10000m1009hPa51%
18-Jun-2024 09:00Broken Clouds30°C9 mph, SW74%10000m1007hPa58%
18-Jun-2024 12:00Broken Clouds24°C4 mph, W51%10000m1010hPa88%
18-Jun-2024 15:00Overcast Clouds22°C4 mph, W100%10000m1013hPa93%
18-Jun-2024 18:00Overcast Clouds22°C4 mph, W100%10000m1012hPa93%
18-Jun-2024 21:00Overcast Clouds22°C4 mph, W96%10000m1011hPa94%
19-Jun-2024 00:00Overcast Clouds22°C4 mph, W93%10000m1012hPa91%
19-Jun-2024 03:00Overcast Clouds28°C4 mph, SW93%10000m1012hPa61%
19-Jun-2024 06:00Overcast Clouds31°C7 mph, SW92%10000m1009hPa50%
19-Jun-2024 09:00Overcast Clouds29°C4 mph, SW100%10000m1008hPa66%
19-Jun-2024 12:00Light Rain24°C4 mph, W100%10000m1010hPa90%
19-Jun-2024 15:00Overcast Clouds22°C4 mph, W100%10000m1012hPa95%
19-Jun-2024 18:00Overcast Clouds22°C2 mph, W100%10000m1011hPa94%
19-Jun-2024 21:00Overcast Clouds22°C2 mph, W100%10000m1010hPa89%
20-Jun-2024 00:00Overcast Clouds23°C2 mph, W100%10000m1011hPa86%
20-Jun-2024 03:00Overcast Clouds28°C4 mph, SW99%10000m1012hPa62%
20-Jun-2024 06:00Overcast Clouds31°C7 mph, SW94%10000m1009hPa50%
20-Jun-2024 09:00Light Rain28°C7 mph, W99%10000m1008hPa72%
20-Jun-2024 12:00Light Rain24°C4 mph, W92%10000m1011hPa90%
20-Jun-2024 15:00Overcast Clouds23°C2 mph, W100%10000m1012hPa92%
20-Jun-2024 18:00Overcast Clouds22°C4 mph, W100%10000m1011hPa91%
20-Jun-2024 21:00Overcast Clouds22°C2 mph, W100%10000m1011hPa89%
21-Jun-2024 00:00Overcast Clouds22°C2 mph, W98%10000m1012hPa90%
21-Jun-2024 03:00Broken Clouds29°C2 mph, S80%10000m1012hPa59%
21-Jun-2024 06:00Broken Clouds32°C2 mph, SW56%10000m1009hPa46%
21-Jun-2024 09:00Scattered Clouds31°C9 mph, SW26%10000m1008hPa54%